KAHN

Athens / Ben Epps Airport

Athens, Georgia, USA
METAR KAHN 222051Z 10006KT 10SM FEW012 BKN065 OVC085 16/15 A3017 RMK AO2 RAE49 SLP217 P0005 60013 T01560150 58016
Observed Flight Rules
Apr-22 @ 20:51 UTC (an hour ago) Visual Flight Rules
Wind Visibility Clouds
100° at 6 knots 10 miles
  • Few at 1,200' AGL
  • Broken at 6,500' AGL
  • Overcast at 8,500' AGL
Temperatures Readings Precipitation
Current 16°C / 61°F
Dewpoint 15°C / 59°F
Humidity 94%
Altimeter 30.17" Hg
Pressure 1021.7 hPa
Elevation 244
Current Rain 0.05
METAR KAHN 222051Z 10006KT 10SM FEW012 BKN065 OVC085 16/15 A3017 RMK AO2 RAE49 SLP217 P0005 60013 T01560150 58016
Observed Flight Rules
Apr-22 @ 20:51 UTC
(an hour ago)
VFR
Wind Visibility
100° at 6 knots 10 miles
Clouds
  • Few at 1,200' AGL
  • Broken at 6,500' AGL
  • Overcast at 8,500' AGL
Temperature Dewpoint
16°C / 61°F 15°C / 59°F
Humidity Altimeter Pressure
94% 30.17" Hg 1021.7 hPa
Current Rain
0.05